createdAt,value
2023-05-14T00:02:21.717Z,8.52
2023-05-14T00:06:43.329Z,9.10
2023-05-14T00:11:22.382Z,9.25
2023-05-14T00:16:03.906Z,8.93
2023-05-14T00:20:42.264Z,8.77
2023-05-14T00:25:21.409Z,8.63
2023-05-14T00:30:00.643Z,9.27
2023-05-14T00:34:42.114Z,8.70
2023-05-14T00:39:20.060Z,8.82
2023-05-14T00:44:01.471Z,9.47
2023-05-14T00:48:39.328Z,10.30
2023-05-14T00:53:20.810Z,8.95
2023-05-14T00:58:01.629Z,10.13
2023-05-14T01:02:40.929Z,9.30
2023-05-14T01:07:31.421Z,8.85
2023-05-14T01:12:18.582Z,9.38
2023-05-14T01:17:01.466Z,9.60
2023-05-14T01:21:44.919Z,10.90
2023-05-14T01:26:23.553Z,10.25
2023-05-14T01:31:08.258Z,11.40
2023-05-14T01:35:47.224Z,10.18
2023-05-14T01:40:28.891Z,10.25
2023-05-14T01:45:10.544Z,9.50
2023-05-14T01:49:48.931Z,10.30
2023-05-14T01:54:28.369Z,10.57
2023-05-14T01:59:09.275Z,10.23
2023-05-14T02:03:47.598Z,10.83
2023-05-14T02:08:28.106Z,10.15
2023-05-14T02:13:06.657Z,10.70
2023-05-14T02:17:47.798Z,9.97
2023-05-14T02:22:25.805Z,10.98
2023-05-14T02:27:05.572Z,12.25
2023-05-14T02:31:44.927Z,9.27
2023-05-14T02:36:25.878Z,11.57
2023-05-14T02:41:04.119Z,10.77
2023-05-14T02:45:43.620Z,10.63
2023-05-14T02:50:23.433Z,10.37
2023-05-14T02:55:04.904Z,11.95
2023-05-14T02:59:42.688Z,10.63
2023-05-14T03:04:21.825Z,10.77
2023-05-14T03:09:01.470Z,10.45
2023-05-14T03:13:42.941Z,10.38
2023-05-14T03:18:20.434Z,10.57
2023-05-14T03:23:00.133Z,11.27
2023-05-14T03:27:39.671Z,10.52
2023-05-14T03:32:21.390Z,10.75
2023-05-14T03:36:59.165Z,10.83
2023-05-14T03:41:39.318Z,9.15
2023-05-14T03:46:17.858Z,10.55
2023-05-14T03:50:58.792Z,11.83
2023-05-14T03:55:37.097Z,10.80
2023-05-14T04:00:17.273Z,9.30
2023-05-14T04:04:56.366Z,10.13
2023-05-14T04:09:37.549Z,11.63
2023-05-14T04:14:15.821Z,11.27
2023-05-14T04:18:55.077Z,10.90
2023-05-14T04:23:34.466Z,10.27
2023-05-14T04:28:15.620Z,12.30
2023-05-14T04:32:53.616Z,9.90
2023-05-14T04:37:33.348Z,11.07
2023-05-14T04:42:12.541Z,10.40
2023-05-14T04:46:53.683Z,9.88
2023-05-14T04:51:31.727Z,9.80
2023-05-14T04:56:11.945Z,11.43
2023-05-14T05:00:50.940Z,11.70
2023-05-14T05:05:31.952Z,9.68
2023-05-14T05:10:10.814Z,10.90
2023-05-14T05:14:49.563Z,12.30
2023-05-14T05:19:39.522Z,13.20
2023-05-14T05:24:19.481Z,10.57
2023-05-14T05:28:57.375Z,11.65
2023-05-14T05:33:37.226Z,9.23
2023-05-14T05:38:18.359Z,9.60
2023-05-14T05:42:57.538Z,12.20
2023-05-14T05:47:35.753Z,9.43
2023-05-14T05:52:15.362Z,9.77
2023-05-14T05:56:54.784Z,9.60
2023-05-14T06:01:35.775Z,9.40
2023-05-14T06:06:13.857Z,8.45
2023-05-14T06:10:53.400Z,8.33
2023-05-14T06:15:33.630Z,8.20
2023-05-14T06:20:15.238Z,9.60
2023-05-14T06:24:55.191Z,8.43
2023-05-14T06:29:35.258Z,8.43
2023-05-14T06:34:14.349Z,9.32
2023-05-14T06:38:55.185Z,9.48
2023-05-14T06:43:33.495Z,9.20
2023-05-14T06:48:13.357Z,7.90
2023-05-14T06:52:52.670Z,7.85
2023-05-14T06:57:34.178Z,7.83
2023-05-14T07:02:12.235Z,8.38
2023-05-14T07:06:51.149Z,7.78
2023-05-14T07:11:30.916Z,7.30
2023-05-14T07:16:11.908Z,6.90
2023-05-14T07:20:50.071Z,6.95
2023-05-14T07:25:32.727Z,6.50
2023-05-14T07:30:12.772Z,8.87
2023-05-14T07:34:53.869Z,7.57
2023-05-14T07:39:31.759Z,6.50
2023-05-14T07:44:10.881Z,6.17
2023-05-14T07:48:50.414Z,7.78
2023-05-14T07:53:31.623Z,6.78
2023-05-14T07:58:09.471Z,6.00
2023-05-14T08:02:50.483Z,6.67
2023-05-14T08:07:30.197Z,8.82
2023-05-14T08:12:10.118Z,6.82
2023-05-14T08:16:47.942Z,7.20
2023-05-14T08:21:28.193Z,6.70
2023-05-14T08:26:07.315Z,8.43
2023-05-14T08:30:47.735Z,6.83
2023-05-14T08:35:26.024Z,6.63
2023-05-14T08:40:08.152Z,6.82
2023-05-14T08:44:50.306Z,8.45
2023-05-14T08:49:40.330Z,8.47
2023-05-14T08:54:22.580Z,7.50
2023-05-14T08:59:02.428Z,7.07
2023-05-14T09:03:42.321Z,7.37
2023-05-14T09:08:23.170Z,7.68
2023-05-14T09:13:00.937Z,6.65
2023-05-14T09:17:40.454Z,6.77
2023-05-14T09:22:20.719Z,7.35
2023-05-14T09:27:03.769Z,6.90
2023-05-14T09:31:42.271Z,7.65
2023-05-14T09:36:21.772Z,8.20
2023-05-14T09:41:01.928Z,9.30
2023-05-14T09:45:42.515Z,7.40
2023-05-14T09:50:20.587Z,8.67
2023-05-14T09:55:00.889Z,8.35
2023-05-14T09:59:39.614Z,8.27
2023-05-14T10:04:21.881Z,7.33
2023-05-14T10:09:05.723Z,7.43
2023-05-14T10:13:51.452Z,6.57
2023-05-14T10:18:35.637Z,6.45
2023-05-14T10:23:17.394Z,6.33
2023-05-14T10:27:56.002Z,8.20
2023-05-14T10:32:37.868Z,7.47
2023-05-14T10:37:19.394Z,6.57
2023-05-14T10:41:58.505Z,7.35
2023-05-14T10:46:36.691Z,7.18
2023-05-14T10:51:20.646Z,8.20
2023-05-14T10:55:59.036Z,7.07
2023-05-14T11:00:40.604Z,7.10
2023-05-14T11:05:18.344Z,7.72
2023-05-14T11:10:06.098Z,6.90
2023-05-14T11:14:43.710Z,8.55
2023-05-14T11:19:24.259Z,10.43
2023-05-14T11:24:03.815Z,7.23
2023-05-14T11:28:42.257Z,7.80
2023-05-14T11:33:22.304Z,7.80
2023-05-14T11:38:02.702Z,7.07
2023-05-14T11:42:40.948Z,6.70
2023-05-14T11:47:22.211Z,6.40
2023-05-14T11:52:00.225Z,7.03
2023-05-14T11:56:40.847Z,6.53
2023-05-14T12:01:19.072Z,8.13
2023-05-14T12:06:00.050Z,5.93
2023-05-14T12:10:43.360Z,6.83
2023-05-14T12:15:23.655Z,6.68
2023-05-14T12:20:04.200Z,6.63
2023-05-14T12:24:44.251Z,7.23
2023-05-14T12:29:23.004Z,7.32
2023-05-14T12:34:05.286Z,7.05
2023-05-14T12:38:45.241Z,7.88
2023-05-14T12:43:24.189Z,6.90
2023-05-14T12:48:03.900Z,6.43
2023-05-14T12:52:44.733Z,7.43
2023-05-14T12:57:22.816Z,6.40
2023-05-14T13:02:02.353Z,6.53
2023-05-14T13:06:42.286Z,6.10
2023-05-14T13:11:22.883Z,6.23
2023-05-14T13:16:01.160Z,6.63
2023-05-14T13:20:42.977Z,6.00
2023-05-14T13:25:23.486Z,5.95
2023-05-14T13:30:04.774Z,5.83
2023-05-14T13:34:44.061Z,6.45
2023-05-14T13:39:22.790Z,6.38
2023-05-14T13:44:01.568Z,6.40
2023-05-14T13:48:42.701Z,6.78
2023-05-14T13:53:21.178Z,6.70
2023-05-14T13:58:00.371Z,6.40
2023-05-14T14:02:39.827Z,6.80
2023-05-14T14:07:21.363Z,7.45
2023-05-14T14:11:59.180Z,7.45
2023-05-14T14:16:38.499Z,7.23
2023-05-14T14:21:18.541Z,7.22
2023-05-14T14:25:59.694Z,7.93
2023-05-14T14:30:37.336Z,7.40
2023-05-14T14:35:18.358Z,7.50
2023-05-14T14:39:56.339Z,8.15
2023-05-14T14:44:37.761Z,8.37
2023-05-14T14:49:15.385Z,7.75
2023-05-14T14:53:54.826Z,8.50
2023-05-14T14:58:34.531Z,8.05
2023-05-14T15:03:16.380Z,8.10
2023-05-14T15:07:56.540Z,7.05
2023-05-14T15:12:36.198Z,7.45
2023-05-14T15:17:15.879Z,7.60
2023-05-14T15:21:56.847Z,8.00
2023-05-14T15:26:34.893Z,9.35
2023-05-14T15:31:14.493Z,8.33
2023-05-14T15:35:54.188Z,7.72
2023-05-14T15:40:35.287Z,7.78
2023-05-14T15:45:14.945Z,7.70
2023-05-14T15:49:52.729Z,7.77
2023-05-14T15:54:32.318Z,7.50
2023-05-14T15:59:14.633Z,8.07
2023-05-14T16:03:54.487Z,8.43
2023-05-14T16:08:34.267Z,8.93
2023-05-14T16:13:13.684Z,7.60
2023-05-14T16:17:54.647Z,8.50
2023-05-14T16:22:34.754Z,7.43
2023-05-14T16:27:14.713Z,8.10
2023-05-14T16:31:55.127Z,7.57
2023-05-14T16:36:15.105Z,7.30
2023-05-14T16:40:37.348Z,7.95
2023-05-14T16:44:55.609Z,8.55
2023-05-14T16:49:14.166Z,8.50
2023-05-14T16:53:33.142Z,8.13
2023-05-14T16:57:52.983Z,7.75
2023-05-14T17:02:12.140Z,7.30
2023-05-14T17:06:32.121Z,6.43
2023-05-14T17:10:51.748Z,6.55
2023-05-14T17:15:12.027Z,7.20
2023-05-14T17:19:29.151Z,6.70
2023-05-14T17:23:47.182Z,7.93
2023-05-14T17:28:06.718Z,7.20
2023-05-14T17:32:26.418Z,6.13
2023-05-14T17:36:44.457Z,7.35
2023-05-14T17:41:02.412Z,6.05
2023-05-14T17:45:22.220Z,5.60
2023-05-14T17:49:41.738Z,5.75
2023-05-14T17:54:02.129Z,6.13
2023-05-14T17:58:20.859Z,4.82
2023-05-14T18:02:40.637Z,6.33
2023-05-14T18:07:01.435Z,5.78
2023-05-14T18:11:21.409Z,5.60
2023-05-14T18:15:39.360Z,5.83
2023-05-14T18:20:00.179Z,6.55
2023-05-14T18:24:18.609Z,7.45
2023-05-14T18:28:37.499Z,6.37
2023-05-14T18:32:54.572Z,6.45
2023-05-14T18:37:14.028Z,6.22
2023-05-14T18:41:33.746Z,7.10
2023-05-14T18:45:51.870Z,6.47
2023-05-14T18:50:10.398Z,6.65
2023-05-14T18:54:29.179Z,8.23
2023-05-14T18:58:49.360Z,6.00
2023-05-14T19:03:07.144Z,8.82
2023-05-14T19:07:25.225Z,6.90
2023-05-14T19:11:44.566Z,7.10
2023-05-14T19:16:04.533Z,7.22
2023-05-14T19:20:22.547Z,8.05
2023-05-14T19:24:40.640Z,6.90
2023-05-14T19:29:00.168Z,7.30
2023-05-14T19:33:19.668Z,7.22
2023-05-14T19:37:37.588Z,7.80
2023-05-14T19:41:55.629Z,8.00
2023-05-14T19:46:15.362Z,7.68
2023-05-14T19:50:36.856Z,8.07
2023-05-14T19:54:55.910Z,8.83
2023-05-14T19:59:14.046Z,7.28
2023-05-14T20:03:34.881Z,8.45
2023-05-14T20:07:54.214Z,8.10
2023-05-14T20:12:12.914Z,8.27
2023-05-14T20:16:33.024Z,7.10
2023-05-14T20:20:51.976Z,7.00
2023-05-14T20:25:11.551Z,7.90
2023-05-14T20:29:29.803Z,7.43
2023-05-14T20:33:47.923Z,6.72
2023-05-14T20:38:07.102Z,7.77
2023-05-14T20:42:27.302Z,7.65
2023-05-14T20:46:44.996Z,8.85
2023-05-14T20:51:04.924Z,8.25
2023-05-14T20:55:25.810Z,7.40
2023-05-14T20:59:45.351Z,7.88
2023-05-14T21:04:03.660Z,8.27
2023-05-14T21:08:21.408Z,8.23
2023-05-14T21:12:42.651Z,8.55
2023-05-14T21:17:00.442Z,10.27
2023-05-14T21:21:18.562Z,10.00
2023-05-14T21:25:36.619Z,8.57
2023-05-14T21:29:56.236Z,9.05
2023-05-14T21:34:15.885Z,7.93
2023-05-14T21:38:33.931Z,9.43
2023-05-14T21:42:51.965Z,9.05
2023-05-14T21:47:11.518Z,9.40
2023-05-14T21:51:32.166Z,8.87
2023-05-14T21:55:49.855Z,8.18
2023-05-14T22:00:13.016Z,9.15
2023-05-14T22:04:36.162Z,9.30
2023-05-14T22:08:55.635Z,10.25
2023-05-14T22:13:13.656Z,9.50
2023-05-14T22:17:31.797Z,10.02
2023-05-14T22:21:51.182Z,10.80
2023-05-14T22:26:11.001Z,9.73
2023-05-14T22:30:29.085Z,9.52
2023-05-14T22:34:47.014Z,9.87
2023-05-14T22:39:06.580Z,11.07
2023-05-14T22:43:26.378Z,8.68
2023-05-14T22:47:44.203Z,10.27
2023-05-14T22:52:02.342Z,9.20
2023-05-14T22:56:22.198Z,9.18
2023-05-14T23:00:41.409Z,8.98
2023-05-14T23:04:59.593Z,9.50
2023-05-14T23:09:17.582Z,8.68
2023-05-14T23:13:37.025Z,9.18
2023-05-14T23:17:56.993Z,8.87
2023-05-14T23:22:14.759Z,9.15
2023-05-14T23:26:32.810Z,9.90
2023-05-14T23:30:52.394Z,9.60
2023-05-14T23:35:12.122Z,9.77
2023-05-14T23:39:30.203Z,10.27
2023-05-14T23:43:48.918Z,9.07
2023-05-14T23:48:07.881Z,8.37
2023-05-14T23:52:27.434Z,9.55
2023-05-14T23:56:45.663Z,8.85
